Time;durP1;ratioP1;P1;durP2;ratioP2;P2;SDS_P1;SDS_P2;PMS_P1;PMS_P2;Temp;Humidity;BMP_temperature;BMP_pressure;BME280_temperature;BME280_humidity;BME280_pressure;Samples;Min_cycle;Max_cycle;Signal;HPM_P1;HPM_P2
2023/01/06 00:00:20;;;;;;;;;;;10.20;99.90;;;;;;4938525;28;205982;-70
2023/01/06 00:02:46;;;;;;;;;;;10.30;99.90;;;;;;5018123;28;19929;-69
2023/01/06 00:05:13;;;;;;;;;;;10.30;99.90;;;;;;4952346;28;210253;-69
2023/01/06 00:07:39;;;;;;;;;;;10.30;99.90;;;;;;5007234;28;19929;-69
2023/01/06 00:10:06;;;;;;;;;;;10.30;99.90;;;;;;4961414;28;151396;-69
2023/01/06 00:12:31;;;;;;;;;;;10.30;99.90;;;;;;5007566;28;20397;-71
2023/01/06 00:14:57;;;;;;;;;;;10.30;99.90;;;;;;4961354;28;209863;-70
2023/01/06 00:17:23;;;;;;;;;;;10.30;99.90;;;;;;5000579;28;19921;-71
2023/01/06 00:19:50;;;;;;;;;;;10.30;99.90;;;;;;4971692;28;208006;-71
2023/01/06 00:22:22;;;;;;;;;;;10.30;99.90;;;;;;5003781;28;19940;-70
2023/01/06 00:24:57;;;;;;;;;;;10.30;99.90;;;;;;4968573;28;211829;-69
2023/01/06 00:27:23;;;;;;;;;;;10.30;99.90;;;;;;5025596;28;20378;-70
2023/01/06 00:29:49;;;;;;;;;;;10.30;99.90;;;;;;4965439;28;218179;-69
2023/01/06 00:32:16;;;;;;;;;;;10.30;99.90;;;;;;5001221;28;19925;-70
2023/01/06 00:34:42;;;;;;;;;;;10.40;99.90;;;;;;4979350;28;207882;-70
2023/01/06 00:37:08;;;;;;;;;;;10.30;99.90;;;;;;5021472;28;19925;-70
2023/01/06 00:39:37;;;;;;;;;;;10.40;99.90;;;;;;4979018;28;224629;-71
2023/01/06 00:42:03;;;;;;;;;;;10.40;99.90;;;;;;5025823;28;19932;-70
2023/01/06 00:44:29;;;;;;;;;;;10.40;99.90;;;;;;4975988;28;207502;-69
2023/01/06 00:46:56;;;;;;;;;;;10.40;99.90;;;;;;5012700;28;19931;-71
2023/01/06 00:49:25;;;;;;;;;;;10.40;99.90;;;;;;4967101;28;212855;-71
2023/01/06 00:51:51;;;;;;;;;;;10.40;99.90;;;;;;5008015;28;20271;-70
2023/01/06 00:54:17;;;;;;;;;;;10.40;99.90;;;;;;4978784;28;214102;-70
2023/01/06 00:56:44;;;;;;;;;;;10.40;99.90;;;;;;5017043;28;19929;-70
2023/01/06 00:59:11;;;;;;;;;;;10.40;99.90;;;;;;4981356;28;221539;-71
2023/01/06 01:01:37;;;;;;;;;;;10.40;99.90;;;;;;5002550;28;20362;-70
2023/01/06 01:04:03;;;;;;;;;;;10.40;99.90;;;;;;4966826;28;208882;-71
2023/01/06 01:06:29;;;;;;;;;;;10.40;99.90;;;;;;5000460;28;19925;-70
2023/01/06 01:08:56;;;;;;;;;;;10.40;99.90;;;;;;5006833;28;209268;-71
2023/01/06 01:14:27;;;;;;;;;;;10.40;99.90;;;;;;4923881;28;168683;-69
2023/01/06 01:16:53;;;;;;;;;;;10.40;99.90;;;;;;4970851;28;19932;-69
2023/01/06 01:19:19;;;;;;;;;;;10.30;99.90;;;;;;4942821;28;68397;-70
2023/01/06 01:21:45;;;;;;;;;;;10.30;99.90;;;;;;4981519;28;19933;-70
2023/01/06 01:24:11;;;;;;;;;;;10.30;99.90;;;;;;4926322;28;206752;-70
2023/01/06 01:26:37;;;;;;;;;;;10.30;99.90;;;;;;4990722;28;20358;-71
2023/01/06 01:29:03;;;;;;;;;;;10.30;99.90;;;;;;4942135;28;207089;-70
2023/01/06 01:31:29;;;;;;;;;;;10.30;99.90;;;;;;4990055;28;19937;-70
2023/01/06 01:33:55;;;;;;;;;;;10.30;99.90;;;;;;4974111;28;143094;-68
2023/01/06 01:36:21;;;;;;;;;;;10.30;99.90;;;;;;4919928;28;121035;-70
2023/01/06 01:38:47;;;;;;;;;;;10.30;99.90;;;;;;4970734;28;20438;-70
2023/01/06 01:41:15;;;;;;;;;;;10.30;99.90;;;;;;4913222;28;206621;-70
2023/01/06 01:43:44;;;;;;;;;;;10.30;99.90;;;;;;4977308;28;19929;-71
2023/01/06 01:46:11;;;;;;;;;;;10.30;99.90;;;;;;4976514;28;55497;-70
2023/01/06 01:48:37;;;;;;;;;;;10.30;99.90;;;;;;5019865;28;20404;-68
2023/01/06 01:51:05;;;;;;;;;;;10.30;99.90;;;;;;4959880;28;215025;-69
2023/01/06 01:53:32;;;;;;;;;;;10.30;99.90;;;;;;5045918;28;19929;-70
2023/01/06 01:56:01;;;;;;;;;;;10.30;99.90;;;;;;4948854;28;205719;-71
2023/01/06 01:58:31;;;;;;;;;;;10.30;99.90;;;;;;5027300;28;19936;-68
2023/01/06 02:00:57;;;;;;;;;;;10.30;99.90;;;;;;4955987;28;242873;-70
2023/01/06 02:03:24;;;;;;;;;;;10.30;99.90;;;;;;5022021;28;19932;-70
2023/01/06 02:05:53;;;;;;;;;;;10.30;99.90;;;;;;4954107;28;206425;-69
2023/01/06 02:08:22;;;;;;;;;;;10.30;99.90;;;;;;5037936;28;19925;-70
2023/01/06 02:10:48;;;;;;;;;;;10.40;99.90;;;;;;4959052;28;207179;-69
2023/01/06 02:13:13;;;;;;;;;;;10.30;99.90;;;;;;5017757;28;19931;-70
2023/01/06 02:15:40;;;;;;;;;;;10.40;99.90;;;;;;4967322;28;239844;-70
2023/01/06 02:18:25;;;;;;;;;;;10.30;99.90;;;;;;5032362;28;19952;-68
2023/01/06 02:21:10;;;;;;;;;;;10.40;99.90;;;;;;4969015;28;215210;-70
2023/01/06 02:23:47;;;;;;;;;;;10.40;99.90;;;;;;5033897;28;20205;-69
2023/01/06 02:26:22;;;;;;;;;;;10.40;99.90;;;;;;4957053;28;209428;-71
2023/01/06 02:29:01;;;;;;;;;;;10.30;99.90;;;;;;5033118;28;19925;-70
2023/01/06 02:31:30;;;;;;;;;;;10.30;99.90;;;;;;4920592;28;207650;-69
2023/01/06 02:34:02;;;;;;;;;;;10.30;99.90;;;;;;5016811;28;212245;-70
2023/01/06 02:36:47;;;;;;;;;;;10.30;99.90;;;;;;4939215;28;229973;-70
2023/01/06 02:39:31;;;;;;;;;;;10.30;99.90;;;;;;4973884;28;232300;-69
2023/01/06 02:42:06;;;;;;;;;;;10.30;99.90;;;;;;5008542;28;19932;-68
2023/01/06 02:44:39;;;;;;;;;;;10.30;99.90;;;;;;4965274;28;220072;-72
2023/01/06 02:47:24;;;;;;;;;;;10.30;99.90;;;;;;5026566;28;19928;-70
2023/01/06 02:50:05;;;;;;;;;;;10.30;99.90;;;;;;4956170;28;210140;-70
2023/01/06 02:52:44;;;;;;;;;;;10.30;99.90;;;;;;5021472;28;20294;-70
2023/01/06 02:55:28;;;;;;;;;;;10.30;99.90;;;;;;4957186;28;207358;-69
2023/01/06 02:58:08;;;;;;;;;;;10.20;99.90;;;;;;5025724;28;19925;-70
2023/01/06 03:00:36;;;;;;;;;;;10.30;99.90;;;;;;4964027;28;267457;-68
2023/01/06 03:03:06;;;;;;;;;;;10.30;99.90;;;;;;5034122;28;20306;-68
2023/01/06 03:05:34;;;;;;;;;;;10.20;99.90;;;;;;4948785;28;172157;-69
2023/01/06 03:08:03;;;;;;;;;;;10.20;99.90;;;;;;4997831;28;20310;-71
2023/01/06 03:10:29;;;;;;;;;;;10.30;99.90;;;;;;4980263;28;209583;-70
2023/01/06 03:12:59;;;;;;;;;;;10.30;99.90;;;;;;5002840;28;20393;-70
2023/01/06 03:15:25;;;;;;;;;;;10.20;99.90;;;;;;4942461;28;207157;-71
2023/01/06 03:17:51;;;;;;;;;;;10.20;99.90;;;;;;5024225;28;19943;-68
2023/01/06 03:20:18;;;;;;;;;;;10.20;99.90;;;;;;4945845;28;257578;-68
2023/01/06 03:22:44;;;;;;;;;;;10.20;99.90;;;;;;5027511;28;19927;-68
2023/01/06 03:25:10;;;;;;;;;;;10.20;99.90;;;;;;4957338;28;208039;-68
2023/01/06 03:27:36;;;;;;;;;;;10.30;99.90;;;;;;5024221;28;19928;-69
2023/01/06 03:30:07;;;;;;;;;;;10.30;99.90;;;;;;4960565;28;210354;-67
2023/01/06 03:32:37;;;;;;;;;;;10.30;99.90;;;;;;5016081;28;19921;-68
2023/01/06 03:35:38;;;;;;;;;;;10.30;99.90;;;;;;4974126;28;206761;-68
2023/01/06 03:38:13;;;;;;;;;;;10.20;99.90;;;;;;5014943;28;19944;-69
2023/01/06 03:40:42;;;;;;;;;;;10.30;99.90;;;;;;4958203;28;239768;-70
2023/01/06 03:43:15;;;;;;;;;;;10.30;99.90;;;;;;4999360;28;20393;-67
2023/01/06 03:45:55;;;;;;;;;;;10.30;99.90;;;;;;4944210;28;213319;-67
2023/01/06 03:48:27;;;;;;;;;;;10.30;99.90;;;;;;5001359;28;19979;-69
2023/01/06 03:51:00;;;;;;;;;;;10.30;99.90;;;;;;4949330;28;182134;-68
2023/01/06 03:53:29;;;;;;;;;;;10.30;99.90;;;;;;5016426;28;20406;-68
2023/01/06 03:56:01;;;;;;;;;;;10.30;99.90;;;;;;4934382;28;205733;-70
2023/01/06 03:58:28;;;;;;;;;;;10.30;99.90;;;;;;4999821;28;19937;-70
2023/01/06 04:00:55;;;;;;;;;;;10.30;99.90;;;;;;4929897;28;206842;-68
2023/01/06 04:03:22;;;;;;;;;;;10.30;99.90;;;;;;5017715;28;19944;-70
2023/01/06 04:05:49;;;;;;;;;;;10.30;99.90;;;;;;4934669;28;210605;-69
2023/01/06 04:08:14;;;;;;;;;;;10.30;99.90;;;;;;5015644;28;20311;-68
2023/01/06 04:10:40;;;;;;;;;;;10.30;99.90;;;;;;4933189;28;162974;-68
2023/01/06 04:13:06;;;;;;;;;;;10.30;99.90;;;;;;5012886;28;20104;-71
2023/01/06 04:15:32;;;;;;;;;;;10.30;99.90;;;;;;4952047;28;212330;-70
2023/01/06 04:17:58;;;;;;;;;;;10.30;99.90;;;;;;5027109;28;19921;-68
2023/01/06 04:20:25;;;;;;;;;;;10.30;99.90;;;;;;4962002;28;214553;-69
2023/01/06 04:22:52;;;;;;;;;;;10.30;99.90;;;;;;5028883;28;20326;-69
2023/01/06 04:25:18;;;;;;;;;;;10.30;99.90;;;;;;4974128;28;207664;-71
2023/01/06 04:27:44;;;;;;;;;;;10.30;99.90;;;;;;5024015;28;19936;-69
2023/01/06 04:30:10;;;;;;;;;;;10.20;99.90;;;;;;4966992;28;218340;-68
2023/01/06 04:32:36;;;;;;;;;;;10.20;99.90;;;;;;5028783;28;19929;-67
2023/01/06 04:35:02;;;;;;;;;;;10.30;99.90;;;;;;4972469;28;210334;-69
2023/01/06 04:37:28;;;;;;;;;;;10.30;99.90;;;;;;5023877;28;19969;-68
2023/01/06 04:39:57;;;;;;;;;;;10.20;99.90;;;;;;4951936;28;342944;-69
2023/01/06 04:42:26;;;;;;;;;;;10.30;99.90;;;;;;5021598;28;19964;-68
2023/01/06 04:44:51;;;;;;;;;;;10.30;99.90;;;;;;4967719;28;209438;-68
2023/01/06 04:47:17;;;;;;;;;;;10.30;99.90;;;;;;5003430;28;19921;-68
2023/01/06 04:49:43;;;;;;;;;;;10.30;99.90;;;;;;4970978;28;214971;-68
2023/01/06 04:52:09;;;;;;;;;;;10.30;99.90;;;;;;5020867;28;19935;-69
2023/01/06 04:54:35;;;;;;;;;;;10.30;99.90;;;;;;4968459;28;276841;-70
2023/01/06 04:57:01;;;;;;;;;;;10.30;99.90;;;;;;5014450;28;19921;-69
2023/01/06 04:59:27;;;;;;;;;;;10.30;99.90;;;;;;4984629;28;209798;-70
2023/01/06 05:01:53;;;;;;;;;;;10.30;99.90;;;;;;5034335;28;19924;-68
2023/01/06 05:04:19;;;;;;;;;;;10.30;99.90;;;;;;4960159;28;126477;-69
2023/01/06 05:06:45;;;;;;;;;;;10.30;99.90;;;;;;5013448;28;19928;-68
2023/01/06 05:09:11;;;;;;;;;;;10.20;99.90;;;;;;4975512;28;233994;-69
2023/01/06 05:11:37;;;;;;;;;;;10.30;99.90;;;;;;5013297;28;19939;-69
2023/01/06 05:14:03;;;;;;;;;;;10.30;99.90;;;;;;4966671;28;225242;-68
2023/01/06 05:16:30;;;;;;;;;;;10.30;99.90;;;;;;5012282;28;19922;-70
2023/01/06 05:18:56;;;;;;;;;;;10.30;99.90;;;;;;5026894;28;20294;-69
2023/01/06 05:21:23;;;;;;;;;;;10.30;99.90;;;;;;4973205;28;205483;-67
2023/01/06 05:23:50;;;;;;;;;;;10.30;99.90;;;;;;5050644;28;20389;-67
2023/01/06 05:26:17;;;;;;;;;;;10.30;99.90;;;;;;4962049;28;206362;-68
2023/01/06 05:28:43;;;;;;;;;;;10.30;99.90;;;;;;5051668;28;19925;-69
2023/01/06 05:31:09;;;;;;;;;;;10.30;99.90;;;;;;4973834;28;207894;-69
2023/01/06 05:33:36;;;;;;;;;;;10.30;99.90;;;;;;5041522;28;20325;-67
2023/01/06 05:36:03;;;;;;;;;;;10.20;99.90;;;;;;4827629;28;2998916;-68
2023/01/06 05:38:30;;;;;;;;;;;10.20;99.90;;;;;;5033683;28;20404;-68
2023/01/06 05:40:56;;;;;;;;;;;10.20;99.90;;;;;;4948290;28;234837;-69
2023/01/06 05:43:22;;;;;;;;;;;10.10;99.90;;;;;;5032161;28;19931;-68
2023/01/06 05:45:48;;;;;;;;;;;10.20;99.90;;;;;;4971696;28;211557;-67
2023/01/06 05:48:14;;;;;;;;;;;10.20;99.90;;;;;;5036693;28;19929;-69
2023/01/06 05:50:40;;;;;;;;;;;10.20;99.90;;;;;;4961299;28;206605;-67
2023/01/06 05:53:06;;;;;;;;;;;10.20;99.90;;;;;;5029769;28;20425;-68
2023/01/06 05:55:36;;;;;;;;;;;10.10;99.90;;;;;;4870438;28;3001815;-69
2023/01/06 05:58:05;;;;;;;;;;;10.10;99.90;;;;;;5026970;28;19928;-69
2023/01/06 06:00:31;;;;;;;;;;;10.10;99.90;;;;;;4959212;28;243575;-68
2023/01/06 06:02:56;;;;;;;;;;;10.10;99.90;;;;;;5034859;28;19921;-69
2023/01/06 06:05:22;;;;;;;;;;;10.10;99.90;;;;;;4956201;28;206000;-69
2023/01/06 06:07:55;;;;;;;;;;;10.10;99.90;;;;;;5027797;28;19924;-68
2023/01/06 06:10:21;;;;;;;;;;;10.00;99.90;;;;;;4970831;28;211245;-69
2023/01/06 06:12:49;;;;;;;;;;;10.00;99.90;;;;;;5016829;28;19924;-68
2023/01/06 06:15:15;;;;;;;;;;;10.00;99.90;;;;;;4962129;28;237590;-67
2023/01/06 06:17:41;;;;;;;;;;;10.00;99.90;;;;;;5028258;28;19935;-70
2023/01/06 06:20:07;;;;;;;;;;;10.00;99.90;;;;;;4959372;28;195552;-70
2023/01/06 06:22:33;;;;;;;;;;;10.00;99.90;;;;;;5023448;28;19940;-68
2023/01/06 06:25:02;;;;;;;;;;;10.00;99.90;;;;;;4967815;28;63860;-68
2023/01/06 06:27:28;;;;;;;;;;;9.90;99.90;;;;;;5026358;28;19936;-72
2023/01/06 06:29:54;;;;;;;;;;;9.90;99.90;;;;;;4970368;28;208038;-67
2023/01/06 06:32:23;;;;;;;;;;;9.90;99.90;;;;;;5021943;28;20016;-70
2023/01/06 06:34:49;;;;;;;;;;;9.90;99.90;;;;;;4975033;28;207582;-69
2023/01/06 06:37:15;;;;;;;;;;;9.90;99.90;;;;;;5027105;28;19925;-68
2023/01/06 06:39:41;;;;;;;;;;;9.90;99.90;;;;;;4978552;28;208670;-70
2023/01/06 06:42:07;;;;;;;;;;;9.90;99.90;;;;;;5008369;28;19921;-69
2023/01/06 06:44:33;;;;;;;;;;;9.80;99.90;;;;;;4970227;28;280666;-70
2023/01/06 06:46:59;;;;;;;;;;;9.80;99.90;;;;;;5028130;28;20646;-70
2023/01/06 06:49:25;;;;;;;;;;;9.90;99.90;;;;;;4974551;28;64362;-69
2023/01/06 06:51:51;;;;;;;;;;;9.80;99.90;;;;;;5027314;28;19925;-73
2023/01/06 06:54:17;;;;;;;;;;;9.80;99.90;;;;;;4981689;28;209281;-70
2023/01/06 06:56:43;;;;;;;;;;;9.80;99.90;;;;;;4983410;28;19921;-70
2023/01/06 06:59:08;;;;;;;;;;;9.80;99.90;;;;;;4984701;28;204667;-71
2023/01/06 07:01:34;;;;;;;;;;;9.80;99.90;;;;;;5012674;28;19936;-73
2023/01/06 07:04:00;;;;;;;;;;;9.80;99.90;;;;;;4986468;28;213617;-70
2023/01/06 07:06:26;;;;;;;;;;;9.80;99.90;;;;;;4992075;28;110972;-71
2023/01/06 07:08:52;;;;;;;;;;;9.70;99.90;;;;;;5030005;28;210218;-71
2023/01/06 07:11:18;;;;;;;;;;;9.70;99.90;;;;;;4988814;28;237149;-74
2023/01/06 07:13:45;;;;;;;;;;;9.70;99.90;;;;;;5041060;28;19925;-73
2023/01/06 07:16:11;;;;;;;;;;;9.70;99.90;;;;;;4971044;28;220120;-71
2023/01/06 07:18:37;;;;;;;;;;;9.70;99.90;;;;;;5043201;28;19928;-72
2023/01/06 07:21:06;;;;;;;;;;;9.70;99.90;;;;;;4954648;28;205655;-72
2023/01/06 07:23:34;;;;;;;;;;;9.70;99.90;;;;;;5025259;28;19932;-73
2023/01/06 07:26:01;;;;;;;;;;;9.70;99.90;;;;;;4980286;28;206754;-71
2023/01/06 07:28:27;;;;;;;;;;;9.70;99.90;;;;;;5048010;28;19920;-70
2023/01/06 07:30:53;;;;;;;;;;;9.70;99.90;;;;;;4965874;28;126036;-70
2023/01/06 07:33:20;;;;;;;;;;;9.70;99.90;;;;;;5039075;28;20301;-72
2023/01/06 07:35:46;;;;;;;;;;;9.80;99.90;;;;;;4944344;28;120106;-71
2023/01/06 07:38:12;;;;;;;;;;;9.70;99.90;;;;;;5032496;28;19936;-72
2023/01/06 07:40:38;;;;;;;;;;;9.80;99.90;;;;;;4963037;28;212413;-72
2023/01/06 07:43:05;;;;;;;;;;;9.80;99.90;;;;;;5000414;28;19927;-71
2023/01/06 07:45:31;;;;;;;;;;;9.80;99.90;;;;;;4962209;28;196940;-72
2023/01/06 07:47:57;;;;;;;;;;;9.80;99.90;;;;;;5031247;28;19939;-70
2023/01/06 07:50:24;;;;;;;;;;;9.80;99.90;;;;;;4959665;28;204527;-73
2023/01/06 07:52:50;;;;;;;;;;;9.80;99.90;;;;;;5013117;28;19963;-70
2023/01/06 07:55:16;;;;;;;;;;;9.80;99.90;;;;;;4955200;28;169091;-72
2023/01/06 07:57:42;;;;;;;;;;;9.80;99.90;;;;;;5009259;28;19932;-70
2023/01/06 08:00:08;;;;;;;;;;;9.70;99.90;;;;;;4976724;28;227637;-72
2023/01/06 08:02:34;;;;;;;;;;;9.60;99.90;;;;;;5031419;28;19936;-72
2023/01/06 08:05:00;;;;;;;;;;;9.60;99.90;;;;;;4970620;28;228322;-73
2023/01/06 08:07:26;;;;;;;;;;;9.50;99.90;;;;;;5034662;28;19940;-69
2023/01/06 08:09:58;;;;;;;;;;;9.40;99.90;;;;;;4956336;28;238162;-69
2023/01/06 08:12:24;;;;;;;;;;;9.40;99.90;;;;;;5018400;28;19929;-71
2023/01/06 08:14:50;;;;;;;;;;;9.30;99.90;;;;;;4976677;28;213236;-70
2023/01/06 08:17:16;;;;;;;;;;;9.30;99.90;;;;;;5017535;28;19935;-71
2023/01/06 08:19:41;;;;;;;;;;;9.20;99.90;;;;;;4963887;28;206057;-70
2023/01/06 08:22:07;;;;;;;;;;;9.20;99.90;;;;;;5005643;28;20070;-71
2023/01/06 08:24:34;;;;;;;;;;;9.10;99.90;;;;;;4972760;28;113488;-70
2023/01/06 08:27:00;;;;;;;;;;;9.00;99.90;;;;;;5018522;28;19929;-69
2023/01/06 08:29:26;;;;;;;;;;;8.90;99.90;;;;;;4972444;28;248769;-71
2023/01/06 08:31:52;;;;;;;;;;;8.80;99.90;;;;;;5030879;28;19925;-69
2023/01/06 08:34:18;;;;;;;;;;;8.80;99.90;;;;;;4976323;28;227058;-71
2023/01/06 08:36:45;;;;;;;;;;;8.70;99.90;;;;;;5008602;28;19931;-70
2023/01/06 08:39:12;;;;;;;;;;;8.70;99.90;;;;;;4992875;28;207159;-70
2023/01/06 08:41:40;;;;;;;;;;;8.60;99.90;;;;;;5023543;28;19925;-71
2023/01/06 08:44:06;;;;;;;;;;;8.50;99.90;;;;;;4987021;28;207069;-71
2023/01/06 08:46:32;;;;;;;;;;;8.50;99.90;;;;;;5025639;28;19920;-70
2023/01/06 08:48:58;;;;;;;;;;;8.40;99.90;;;;;;5000656;28;205289;-69
2023/01/06 08:51:27;;;;;;;;;;;8.40;99.90;;;;;;4996760;28;207236;-67
2023/01/06 08:53:53;;;;;;;;;;;8.40;99.90;;;;;;5006836;28;210079;-69
2023/01/06 08:56:27;;;;;;;;;;;8.40;99.90;;;;;;4975985;28;42458;-70
2023/01/06 08:58:53;;;;;;;;;;;8.40;99.90;;;;;;5021579;28;217370;-70
2023/01/06 09:01:23;;;;;;;;;;;8.40;99.90;;;;;;4970515;28;105281;-70
2023/01/06 09:03:49;;;;;;;;;;;8.30;99.90;;;;;;5003537;28;19936;-69
2023/01/06 09:06:15;;;;;;;;;;;8.40;99.90;;;;;;4932966;28;205822;-68
2023/01/06 09:08:40;;;;;;;;;;;8.40;99.90;;;;;;5038025;28;19932;-70
2023/01/06 09:11:08;;;;;;;;;;;8.40;99.90;;;;;;4950380;28;246111;-69
2023/01/06 09:13:34;;;;;;;;;;;8.40;99.90;;;;;;5020441;28;21311;-66
2023/01/06 09:16:03;;;;;;;;;;;8.40;99.90;;;;;;4852813;28;2954066;-68
2023/01/06 09:18:29;;;;;;;;;;;8.40;99.90;;;;;;5022507;28;19936;-68
2023/01/06 09:20:55;;;;;;;;;;;8.40;99.90;;;;;;4954130;28;205633;-69
2023/01/06 09:23:22;;;;;;;;;;;8.40;99.90;;;;;;5037217;28;19921;-69
2023/01/06 09:25:49;;;;;;;;;;;8.40;99.90;;;;;;4979384;28;207773;-68
2023/01/06 09:28:15;;;;;;;;;;;8.40;99.90;;;;;;5037663;28;19924;-69
2023/01/06 09:30:41;;;;;;;;;;;8.40;99.90;;;;;;4966637;28;236582;-69
2023/01/06 09:33:07;;;;;;;;;;;8.40;99.90;;;;;;5014551;28;20325;-70
2023/01/06 09:35:33;;;;;;;;;;;8.50;99.90;;;;;;4956215;28;206519;-70
2023/01/06 09:37:59;;;;;;;;;;;8.40;99.90;;;;;;5026399;28;19929;-67
2023/01/06 09:40:29;;;;;;;;;;;8.50;99.90;;;;;;4972746;28;206537;-70
2023/01/06 09:42:54;;;;;;;;;;;8.50;99.90;;;;;;5026154;28;19932;-67
2023/01/06 09:45:41;;;;;;;;;;;8.50;99.90;;;;;;4938858;28;206124;-68
2023/01/06 09:48:10;;;;;;;;;;;8.50;99.90;;;;;;5029815;28;19929;-68
2023/01/06 09:50:38;;;;;;;;;;;8.50;99.90;;;;;;4962010;28;210376;-69
2023/01/06 09:53:15;;;;;;;;;;;8.50;99.90;;;;;;5017841;28;20361;-68
2023/01/06 09:55:42;;;;;;;;;;;8.50;99.90;;;;;;4965439;28;224599;-69
2023/01/06 09:58:20;;;;;;;;;;;8.50;99.90;;;;;;5011507;28;19924;-72
2023/01/06 10:00:48;;;;;;;;;;;8.50;99.90;;;;;;4977886;28;209349;-69
2023/01/06 10:03:15;;;;;;;;;;;8.50;99.90;;;;;;5034709;28;19920;-69
2023/01/06 10:05:50;;;;;;;;;;;8.60;99.90;;;;;;4946141;28;111438;-69
2023/01/06 10:08:31;;;;;;;;;;;8.60;99.90;;;;;;5028577;28;19951;-69
2023/01/06 10:11:00;;;;;;;;;;;8.60;99.90;;;;;;4964798;28;207051;-69
2023/01/06 10:13:26;;;;;;;;;;;8.70;99.90;;;;;;5032720;28;19929;-69
2023/01/06 10:16:15;;;;;;;;;;;8.60;99.90;;;;;;4958579;28;209255;-70
2023/01/06 10:18:44;;;;;;;;;;;8.70;99.90;;;;;;5015563;28;19921;-70
2023/01/06 10:21:42;;;;;;;;;;;8.80;99.90;;;;;;4963961;28;207170;-70
2023/01/06 10:24:08;;;;;;;;;;;8.80;99.90;;;;;;4947029;28;216551;-70
2023/01/06 10:26:41;;;;;;;;;;;8.80;99.90;;;;;;5026525;28;19925;-68
2023/01/06 10:29:18;;;;;;;;;;;8.90;99.90;;;;;;4967065;28;211218;-68
2023/01/06 10:31:45;;;;;;;;;;;8.90;99.90;;;;;;5021461;28;20318;-69
2023/01/06 10:34:24;;;;;;;;;;;8.90;99.90;;;;;;4971165;28;237959;-70
2023/01/06 10:37:08;;;;;;;;;;;8.90;99.90;;;;;;5004585;28;19952;-69
2023/01/06 10:39:39;;;;;;;;;;;9.00;99.90;;;;;;4972891;28;236102;-68
2023/01/06 10:44:58;;;;;;;;;;;9.20;99.90;;;;;;4964059;28;209835;-67
2023/01/06 10:47:29;;;;;;;;;;;9.20;99.90;;;;;;5014898;28;20783;-69
2023/01/06 10:49:55;;;;;;;;;;;9.20;99.90;;;;;;4958901;28;209280;-70
2023/01/06 10:52:21;;;;;;;;;;;9.20;99.90;;;;;;5021904;28;19944;-69
2023/01/06 10:54:49;;;;;;;;;;;9.30;99.90;;;;;;4961190;28;225081;-67
2023/01/06 10:57:19;;;;;;;;;;;9.40;99.90;;;;;;5011253;28;19931;-69
2023/01/06 11:00:05;;;;;;;;;;;9.40;99.90;;;;;;4941204;28;206297;-70
2023/01/06 11:02:32;;;;;;;;;;;9.40;99.90;;;;;;5007139;28;19925;-69
2023/01/06 11:05:00;;;;;;;;;;;9.40;99.90;;;;;;4952889;28;179986;-68
2023/01/06 11:07:25;;;;;;;;;;;9.30;99.90;;;;;;5020503;28;19924;-67
2023/01/06 11:09:51;;;;;;;;;;;9.40;99.90;;;;;;4953477;28;208708;-68
2023/01/06 11:12:27;;;;;;;;;;;9.40;99.90;;;;;;5013574;28;20028;-69
2023/01/06 11:14:57;;;;;;;;;;;9.40;99.90;;;;;;4961710;28;206439;-68
2023/01/06 11:17:24;;;;;;;;;;;9.50;99.90;;;;;;5017755;28;20621;-70
2023/01/06 11:20:08;;;;;;;;;;;9.50;99.90;;;;;;4967204;28;208275;-69
2023/01/06 11:22:36;;;;;;;;;;;9.60;99.90;;;;;;5022586;28;19924;-69
2023/01/06 11:25:03;;;;;;;;;;;9.60;99.90;;;;;;4980847;28;206340;-70
2023/01/06 11:27:29;;;;;;;;;;;9.70;99.90;;;;;;5014811;28;19929;-68
2023/01/06 11:29:55;;;;;;;;;;;9.80;99.90;;;;;;4983269;28;207470;-69
2023/01/06 11:32:26;;;;;;;;;;;9.80;99.90;;;;;;5023014;28;19929;-69
2023/01/06 11:34:54;;;;;;;;;;;9.80;99.90;;;;;;4969938;28;207853;-68
2023/01/06 11:37:35;;;;;;;;;;;9.80;99.90;;;;;;5029662;28;19925;-71
2023/01/06 11:40:03;;;;;;;;;;;9.80;99.90;;;;;;4972084;28;245366;-69
2023/01/06 11:42:29;;;;;;;;;;;9.80;99.90;;;;;;5025133;28;19932;-68
2023/01/06 11:44:55;;;;;;;;;;;9.80;99.90;;;;;;4968318;28;206785;-68
2023/01/06 11:47:23;;;;;;;;;;;9.90;99.90;;;;;;5018020;28;19925;-69
2023/01/06 11:49:53;;;;;;;;;;;9.80;99.90;;;;;;4966444;28;201774;-70
2023/01/06 11:52:21;;;;;;;;;;;9.90;99.90;;;;;;5030893;28;20107;-69
2023/01/06 11:54:56;;;;;;;;;;;9.90;99.90;;;;;;4979134;28;211523;-70
2023/01/06 11:57:25;;;;;;;;;;;10.00;99.90;;;;;;5027945;28;19933;-70
2023/01/06 12:00:17;;;;;;;;;;;10.00;99.90;;;;;;4976658;28;212210;-67
2023/01/06 12:03:07;;;;;;;;;;;10.00;99.90;;;;;;5028905;28;20427;-65
2023/01/06 12:05:35;;;;;;;;;;;10.00;99.90;;;;;;4994793;28;206080;-66
2023/01/06 12:08:05;;;;;;;;;;;10.00;99.90;;;;;;5058597;28;19925;-69
2023/01/06 12:10:33;;;;;;;;;;;10.00;99.90;;;;;;4981199;28;207579;-70
2023/01/06 12:12:59;;;;;;;;;;;10.10;99.90;;;;;;5033983;28;20315;-69
2023/01/06 12:15:27;;;;;;;;;;;10.10;99.90;;;;;;4972949;28;219672;-69
2023/01/06 12:17:56;;;;;;;;;;;10.10;99.90;;;;;;5020077;28;19928;-69
2023/01/06 12:20:34;;;;;;;;;;;10.10;99.90;;;;;;4978210;28;206019;-71
2023/01/06 12:23:03;;;;;;;;;;;10.10;99.90;;;;;;5031858;28;19925;-69
2023/01/06 12:25:34;;;;;;;;;;;10.40;99.90;;;;;;4965014;28;207543;-68
2023/01/06 12:28:12;;;;;;;;;;;10.70;99.90;;;;;;5023954;28;19925;-67
2023/01/06 12:30:49;;;;;;;;;;;10.60;99.90;;;;;;4974650;28;211180;-67
2023/01/06 12:33:19;;;;;;;;;;;10.40;99.90;;;;;;5036812;28;19925;-70
2023/01/06 12:35:45;;;;;;;;;;;10.30;99.90;;;;;;4960216;28;206128;-70
2023/01/06 12:38:25;;;;;;;;;;;10.20;99.90;;;;;;5018446;28;19936;-69
2023/01/06 12:40:54;;;;;;;;;;;10.20;99.90;;;;;;4967677;28;215738;-69
2023/01/06 12:43:26;;;;;;;;;;;10.10;99.90;;;;;;5019179;28;19925;-68
2023/01/06 12:46:13;;;;;;;;;;;10.20;99.90;;;;;;4967359;28;207172;-69
2023/01/06 12:48:45;;;;;;;;;;;10.20;99.90;;;;;;5019244;28;19947;-69
2023/01/06 12:51:20;;;;;;;;;;;10.50;99.90;;;;;;4947391;28;205881;-69
2023/01/06 12:53:49;;;;;;;;;;;10.70;99.90;;;;;;5033022;28;19929;-70
2023/01/06 12:56:18;;;;;;;;;;;10.80;99.90;;;;;;4951243;28;206358;-69
2023/01/06 12:58:52;;;;;;;;;;;10.70;99.90;;;;;;5037668;28;19932;-69
2023/01/06 13:01:21;;;;;;;;;;;10.70;99.90;;;;;;4953772;28;210933;-69
2023/01/06 13:03:56;;;;;;;;;;;10.50;99.90;;;;;;5006824;28;19928;-69
2023/01/06 13:06:31;;;;;;;;;;;10.30;99.90;;;;;;4955644;28;221257;-69
2023/01/06 13:09:15;;;;;;;;;;;10.10;99.90;;;;;;4999605;28;211635;-69
2023/01/06 13:12:00;;;;;;;;;;;10.00;99.90;;;;;;5000691;28;21056;-70
2023/01/06 13:14:38;;;;;;;;;;;10.00;99.90;;;;;;4977825;28;207302;-68
2023/01/06 13:17:08;;;;;;;;;;;10.00;99.90;;;;;;5026542;28;19928;-69
2023/01/06 13:19:38;;;;;;;;;;;10.00;99.90;;;;;;4981565;28;209421;-69
2023/01/06 13:22:07;;;;;;;;;;;9.90;99.90;;;;;;5020636;28;19946;-70
2023/01/06 13:24:47;;;;;;;;;;;9.80;99.90;;;;;;4958342;28;204998;-69
2023/01/06 13:27:19;;;;;;;;;;;9.80;99.90;;;;;;5021006;28;19921;-69
2023/01/06 13:29:45;;;;;;;;;;;9.70;99.90;;;;;;4979311;28;74423;-71
2023/01/06 13:32:19;;;;;;;;;;;9.70;99.90;;;;;;5026186;28;19929;-69
2023/01/06 13:35:03;;;;;;;;;;;9.70;99.90;;;;;;4983968;28;217141;-69
2023/01/06 13:37:32;;;;;;;;;;;9.60;99.90;;;;;;5032300;28;19928;-68
2023/01/06 13:40:18;;;;;;;;;;;9.50;99.90;;;;;;4982617;28;204071;-69
2023/01/06 13:42:50;;;;;;;;;;;9.50;99.90;;;;;;5023959;28;19921;-68
2023/01/06 13:45:19;;;;;;;;;;;9.50;99.90;;;;;;4984835;28;207477;-71
2023/01/06 13:47:45;;;;;;;;;;;9.50;99.90;;;;;;5033533;28;19932;-70
2023/01/06 13:50:14;;;;;;;;;;;9.40;99.90;;;;;;4962964;28;208051;-69
2023/01/06 13:52:40;;;;;;;;;;;9.40;99.90;;;;;;5035631;28;20507;-69
2023/01/06 13:55:15;;;;;;;;;;;9.30;99.90;;;;;;4973396;28;233721;-70
2023/01/06 13:57:41;;;;;;;;;;;9.30;99.90;;;;;;5016870;28;19929;-68
2023/01/06 14:00:10;;;;;;;;;;;9.30;99.90;;;;;;4941058;28;252992;-70
2023/01/06 14:02:39;;;;;;;;;;;9.30;99.90;;;;;;5021292;28;20727;-71
2023/01/06 14:05:06;;;;;;;;;;;9.30;99.90;;;;;;4958193;28;206435;-69
2023/01/06 14:07:34;;;;;;;;;;;9.30;99.90;;;;;;5031085;28;19956;-70
2023/01/06 14:10:00;;;;;;;;;;;9.30;99.90;;;;;;4990577;28;209427;-70
2023/01/06 14:12:26;;;;;;;;;;;9.30;99.90;;;;;;5024460;28;20362;-70
2023/01/06 14:15:12;;;;;;;;;;;9.20;99.90;;;;;;4976971;28;207092;-69
2023/01/06 14:17:39;;;;;;;;;;;9.30;99.90;;;;;;4996250;28;20402;-69
2023/01/06 14:20:19;;;;;;;;;;;9.30;99.90;;;;;;4979933;28;207679;-70
2023/01/06 14:22:56;;;;;;;;;;;9.20;99.90;;;;;;5038764;28;19925;-70
2023/01/06 14:25:22;;;;;;;;;;;9.20;99.90;;;;;;4979442;28;216490;-70
2023/01/06 14:27:48;;;;;;;;;;;9.20;99.90;;;;;;5034041;28;19921;-70
2023/01/06 14:30:24;;;;;;;;;;;9.20;99.90;;;;;;4980185;28;212325;-70
2023/01/06 14:32:50;;;;;;;;;;;9.20;99.90;;;;;;5020524;28;19940;-70